Time;durP1;ratioP1;P1;durP2;ratioP2;P2;SDS_P1;SDS_P2;PMS_P1;PMS_P2;Temp;Humidity;BMP_temperature;BMP_pressure;BME280_temperature;BME280_humidity;BME280_pressure;Samples;Min_cycle;Max_cycle;Signal;HPM_P1;HPM_P2
2021/12/02 00:00:49;;;;;;;3.90;1.40;;;3.40;99.90;;;;;;5051811;28;20161;-71
2021/12/02 00:03:16;;;;;;;8.07;1.50;;;3.30;99.90;;;;;;5052421;28;20118;-70
2021/12/02 00:05:42;;;;;;;7.45;1.65;;;3.30;99.90;;;;;;5052214;28;20064;-71
2021/12/02 00:08:09;;;;;;;11.93;1.85;;;3.30;99.90;;;;;;5068203;28;20110;-70
2021/12/02 00:10:40;;;;;;;4.63;1.42;;;3.20;99.90;;;;;;5051674;28;20115;-70
2021/12/02 00:13:07;;;;;;;9.68;1.90;;;3.10;99.90;;;;;;5053010;28;20136;-70
2021/12/02 00:15:39;;;;;;;6.82;1.98;;;3.10;99.90;;;;;;5051645;28;20081;-70
2021/12/02 00:21:04;;;;;;;3.85;1.48;;;3.00;99.90;;;;;;5021152;28;20072;-70
2021/12/02 00:23:35;;;;;;;12.05;2.08;;;2.80;99.90;;;;;;5052140;28;20059;-70
2021/12/02 00:26:10;;;;;;;8.63;1.98;;;2.70;99.90;;;;;;5052167;28;20175;-70
2021/12/02 00:28:39;;;;;;;8.65;1.80;;;2.70;99.90;;;;;;5051276;28;20052;-70
2021/12/02 00:31:06;;;;;;;9.63;1.67;;;2.60;99.90;;;;;;5051963;28;20057;-70
2021/12/02 00:33:34;;;;;;;4.90;1.38;;;2.60;99.90;;;;;;5051916;28;20456;-70
2021/12/02 00:36:02;;;;;;;10.23;1.88;;;2.50;99.90;;;;;;5051136;28;20055;-70
2021/12/02 00:38:29;;;;;;;9.55;1.95;;;2.50;99.90;;;;;;5051706;28;20099;-70
2021/12/02 00:40:56;;;;;;;5.97;1.67;;;2.50;99.90;;;;;;5051166;28;20110;-70
2021/12/02 00:43:24;;;;;;;7.38;1.70;;;2.60;99.90;;;;;;5050889;28;20080;-71
2021/12/02 00:45:51;;;;;;;7.35;1.60;;;2.60;99.90;;;;;;5051869;28;20054;-70
2021/12/02 00:48:18;;;;;;;5.88;1.52;;;2.70;99.90;;;;;;5051810;28;20452;-70
2021/12/02 00:50:48;;;;;;;9.68;1.95;;;2.70;99.90;;;;;;5051044;28;20462;-71
2021/12/02 00:53:19;;;;;;;6.33;2.03;;;2.80;99.90;;;;;;5051776;28;20060;-71
2021/12/02 00:55:47;;;;;;;5.47;1.90;;;2.80;99.90;;;;;;5050956;28;20048;-71
2021/12/02 00:58:19;;;;;;;6.80;1.83;;;2.70;99.90;;;;;;5051728;28;20037;-71
2021/12/02 01:00:49;;;;;;;6.88;1.65;;;2.70;99.90;;;;;;5051406;28;20131;-71
2021/12/02 01:03:17;;;;;;;9.07;1.75;;;2.60;99.90;;;;;;5067691;28;20110;-71
2021/12/02 01:05:44;;;;;;;8.73;1.63;;;2.60;99.90;;;;;;5051158;28;20091;-71
2021/12/02 01:08:12;;;;;;;3.30;1.13;;;2.60;99.90;;;;;;5067973;28;20049;-70
2021/12/02 01:10:40;;;;;;;8.65;1.50;;;2.60;99.90;;;;;;5065767;28;20049;-69
2021/12/02 01:13:07;;;;;;;10.10;1.90;;;2.50;99.90;;;;;;5051383;28;20527;-69
2021/12/02 01:15:34;;;;;;;3.55;1.02;;;2.70;99.90;;;;;;5068142;28;20486;-70
2021/12/02 01:18:03;;;;;;;6.72;1.35;;;2.80;99.90;;;;;;5067546;28;20401;-70
2021/12/02 01:20:32;;;;;;;4.65;1.20;;;2.90;99.90;;;;;;5050987;28;20489;-69
2021/12/02 01:23:00;;;;;;;6.65;1.13;;;3.20;99.90;;;;;;5050384;28;20231;-69
2021/12/02 01:25:30;;;;;;;2.90;1.05;;;3.30;99.90;;;;;;5067201;28;20080;-70
2021/12/02 01:27:58;;;;;;;7.85;1.15;;;3.30;99.90;;;;;;5051406;28;20163;-70
2021/12/02 01:30:26;;;;;;;3.40;1.02;;;3.30;99.90;;;;;;5051262;28;20477;-70
2021/12/02 01:32:56;;;;;;;9.35;1.15;;;3.30;99.90;;;;;;5051727;28;20056;-70
2021/12/02 01:35:26;;;;;;;7.28;1.10;;;3.20;99.90;;;;;;5050825;28;20188;-70
2021/12/02 01:37:53;;;;;;;5.18;1.42;;;3.20;99.90;;;;;;5050674;28;20056;-70
2021/12/02 01:40:20;;;;;;;5.47;1.13;;;3.20;99.90;;;;;;5050461;28;20072;-71
2021/12/02 01:42:51;;;;;;;7.38;1.02;;;3.20;99.90;;;;;;5051214;28;20041;-71
2021/12/02 01:45:21;;;;;;;5.57;1.23;;;3.20;99.90;;;;;;5050584;28;20107;-71
2021/12/02 01:47:51;;;;;;;6.25;1.20;;;3.20;99.90;;;;;;5051016;28;20085;-71
2021/12/02 01:50:22;;;;;;;4.10;1.13;;;3.20;99.90;;;;;;5051034;28;20099;-70
2021/12/02 01:52:55;;;;;;;6.70;1.23;;;3.20;99.90;;;;;;5050295;28;20409;-70
2021/12/02 01:55:23;;;;;;;3.72;1.02;;;3.30;99.90;;;;;;5051118;28;20087;-70
2021/12/02 01:57:58;;;;;;;6.13;1.92;;;3.30;99.90;;;;;;5050725;28;20049;-69
2021/12/02 02:00:28;;;;;;;4.70;1.33;;;3.20;99.90;;;;;;5050154;28;20053;-69
2021/12/02 02:02:55;;;;;;;6.28;1.25;;;3.30;99.90;;;;;;5051065;28;20138;-70
2021/12/02 02:05:22;;;;;;;3.60;1.20;;;3.20;99.90;;;;;;5050692;28;20100;-70
2021/12/02 02:07:59;;;;;;;5.47;1.80;;;3.10;99.90;;;;;;5050335;28;20106;-70
2021/12/02 02:10:28;;;;;;;6.70;1.30;;;3.10;99.90;;;;;;5050313;28;20504;-70
2021/12/02 02:12:58;;;;;;;6.10;1.25;;;3.00;99.90;;;;;;5050725;28;20057;-70
2021/12/02 02:15:25;;;;;;;4.65;1.10;;;2.90;99.90;;;;;;5066885;28;20060;-70
2021/12/02 02:17:56;;;;;;;4.60;1.42;;;2.90;99.90;;;;;;5050899;28;20084;-70
2021/12/02 02:20:24;;;;;;;;;;;2.80;99.90;;;;;;5050521;28;20052;-71
2021/12/02 02:22:51;;;;;;;4.00;1.30;;;2.80;99.90;;;;;;5050784;28;19928;-70
2021/12/02 02:25:19;;;;;;;7.28;1.73;;;2.70;99.90;;;;;;5067566;28;20048;-70
2021/12/02 02:27:45;;;;;;;12.88;1.80;;;2.80;99.90;;;;;;5050212;28;20090;-71
2021/12/02 02:30:13;;;;;;;6.18;1.60;;;2.70;99.90;;;;;;5050536;28;20136;-71
2021/12/02 02:32:40;;;;;;;6.43;1.20;;;2.70;99.90;;;;;;5050509;28;20355;-70
2021/12/02 02:35:08;;;;;;;5.82;1.60;;;2.70;99.90;;;;;;5052485;28;20492;-71
2021/12/02 02:37:37;;;;;;;6.93;1.60;;;2.70;99.90;;;;;;5070878;28;20102;-71
2021/12/02 02:40:07;;;;;;;3.15;1.02;;;2.70;99.90;;;;;;5053445;28;20382;-71
2021/12/02 02:42:34;;;;;;;4.03;1.00;;;2.80;99.90;;;;;;5053491;28;20064;-70
2021/12/02 02:45:01;;;;;;;5.40;1.40;;;2.80;99.90;;;;;;5054120;28;20357;-70
2021/12/02 02:47:28;;;;;;;2.80;0.90;;;2.80;99.90;;;;;;5053693;28;20131;-69
2021/12/02 02:49:56;;;;;;;3.92;1.30;;;2.90;99.90;;;;;;5053203;28;20215;-70
2021/12/02 02:52:23;;;;;;;3.65;1.23;;;2.90;99.90;;;;;;5053972;28;20049;-70
2021/12/02 02:54:52;;;;;;;3.90;1.20;;;2.90;99.90;;;;;;5053881;28;20048;-70
2021/12/02 02:57:22;;;;;;;4.78;1.65;;;3.00;99.90;;;;;;5053136;28;20052;-70
2021/12/02 03:00:01;;;;;;;7.32;0.93;;;3.00;99.90;;;;;;5053868;28;20118;-69
2021/12/02 03:02:33;;;;;;;5.20;1.13;;;3.00;99.90;;;;;;5052944;28;20049;-70
2021/12/02 03:05:09;;;;;;;5.15;1.20;;;3.00;99.90;;;;;;5053370;28;20576;-70
2021/12/02 03:07:40;;;;;;;3.42;0.90;;;3.00;99.90;;;;;;5053379;28;20088;-70
2021/12/02 03:10:14;;;;;;;;;;;3.00;99.90;;;;;;5053752;28;20174;-70
2021/12/02 03:12:50;;;;;;;2.50;0.70;;;3.00;99.90;;;;;;5053623;28;19962;-70
2021/12/02 03:18:01;;;;;;;2.22;0.70;;;3.00;99.90;;;;;;5053012;28;20049;-70
2021/12/02 03:20:28;;;;;;;1.40;0.70;;;2.90;99.90;;;;;;5053289;28;20128;-70
2021/12/02 03:22:55;;;;;;;1.65;0.50;;;2.80;99.90;;;;;;5053185;28;20084;-70
2021/12/02 03:25:23;;;;;;;1.25;0.50;;;2.70;99.90;;;;;;5052587;28;20470;-70
2021/12/02 03:27:51;;;;;;;0.50;0.40;;;2.80;99.90;;;;;;5053120;28;20095;-71
2021/12/02 03:30:18;;;;;;;1.50;0.50;;;2.60;99.90;;;;;;5053082;28;20049;-70
2021/12/02 03:32:45;;;;;;;1.20;0.80;;;2.50;99.90;;;;;;5052393;28;20091;-69
2021/12/02 03:35:12;;;;;;;2.03;0.60;;;2.40;99.90;;;;;;5053008;28;20076;-69
2021/12/02 03:37:39;;;;;;;1.10;0.60;;;2.30;99.90;;;;;;5052235;28;20563;-69
2021/12/02 03:40:08;;;;;;;0.40;0.40;;;2.20;99.90;;;;;;5052616;28;20132;-70
2021/12/02 03:42:36;;;;;;;3.70;0.60;;;2.10;99.90;;;;;;5052747;28;20088;-69
2021/12/02 03:45:04;;;;;;;1.90;0.55;;;2.00;99.90;;;;;;5051892;28;20080;-69
2021/12/02 03:47:31;;;;;;;2.08;0.57;;;1.90;99.90;;;;;;5052912;28;20092;-69
2021/12/02 03:49:58;;;;;;;2.45;0.52;;;1.90;99.90;;;;;;5052967;28;20132;-69
2021/12/02 03:52:24;;;;;;;0.70;0.60;;;1.90;99.90;;;;;;5051923;28;20403;-69
2021/12/02 03:54:51;;;;;;;2.13;0.60;;;1.80;99.90;;;;;;5053208;28;20052;-69
2021/12/02 03:57:18;;;;;;;1.45;0.60;;;1.80;99.90;;;;;;5052826;28;20048;-69
2021/12/02 03:59:46;;;;;;;1.02;0.60;;;1.80;99.90;;;;;;5051974;28;20102;-69
2021/12/02 04:02:14;;;;;;;5.13;0.75;;;1.70;99.90;;;;;;5052114;28;20133;-69
2021/12/02 04:04:41;;;;;;;2.20;0.60;;;1.70;99.90;;;;;;5052368;28;20516;-70
2021/12/02 04:07:07;;;;;;;2.10;0.80;;;1.60;99.90;;;;;;5068537;28;20108;-69
2021/12/02 04:09:39;;;;;;;1.05;0.75;;;1.60;99.90;;;;;;5052578;28;20381;-69
2021/12/02 04:12:10;;;;;;;0.70;0.50;;;1.50;99.90;;;;;;5052357;28;20106;-69
2021/12/02 04:14:40;;;;;;;1.00;0.50;;;1.40;99.90;;;;;;5052073;28;20453;-70
2021/12/02 04:17:09;;;;;;;3.95;0.80;;;1.40;99.90;;;;;;5068621;28;20084;-70
2021/12/02 04:19:37;;;;;;;3.15;0.80;;;1.40;99.90;;;;;;5052305;28;20194;-71
2021/12/02 04:22:04;;;;;;;3.00;0.73;;;1.30;99.90;;;;;;5068482;28;20098;-70
2021/12/02 04:24:31;;;;;;;1.15;0.60;;;1.30;99.90;;;;;;5052388;28;20081;-70
2021/12/02 04:26:59;;;;;;;1.95;0.65;;;1.30;99.90;;;;;;5051552;28;20161;-70
2021/12/02 04:29:26;;;;;;;2.03;0.70;;;1.30;99.90;;;;;;5051912;28;20067;-71
2021/12/02 04:31:54;;;;;;;3.13;0.68;;;1.40;99.90;;;;;;5052020;28;20144;-70
2021/12/02 04:34:22;;;;;;;1.25;0.55;;;1.40;99.90;;;;;;5052573;28;20072;-70
2021/12/02 04:36:49;;;;;;;4.90;1.02;;;1.50;99.90;;;;;;5052423;28;20107;-70
2021/12/02 04:39:16;;;;;;;1.55;0.70;;;1.50;99.90;;;;;;5051791;28;20137;-70
2021/12/02 04:41:43;;;;;;;1.52;0.80;;;1.50;99.90;;;;;;5051132;28;20478;-70
2021/12/02 04:44:09;;;;;;;2.97;0.80;;;1.50;99.90;;;;;;5051753;28;20052;-70
2021/12/02 04:46:36;;;;;;;2.40;0.70;;;1.60;99.90;;;;;;5051884;28;20084;-70
2021/12/02 04:49:04;;;;;;;4.38;0.90;;;1.70;99.90;;;;;;5052291;28;20103;-70
2021/12/02 04:51:32;;;;;;;4.25;1.60;;;1.70;99.90;;;;;;5051704;28;20110;-70
2021/12/02 04:53:59;;;;;;;3.70;1.30;;;1.80;99.90;;;;;;5051482;28;20562;-70
2021/12/02 04:56:26;;;;;;;2.75;1.13;;;1.90;99.90;;;;;;5050881;28;20150;-70
2021/12/02 04:58:53;;;;;;;3.40;0.80;;;1.90;99.90;;;;;;5051175;28;20401;-70
2021/12/02 05:01:20;;;;;;;1.92;0.70;;;1.90;99.90;;;;;;5051216;28;20084;-70
2021/12/02 05:03:47;;;;;;;2.05;1.02;;;1.90;99.90;;;;;;5051017;28;20095;-70
2021/12/02 05:06:14;;;;;;;2.95;0.95;;;2.00;99.90;;;;;;5051569;28;20102;-70
2021/12/02 05:08:42;;;;;;;2.80;1.20;;;1.90;99.90;;;;;;5051612;28;20056;-70
2021/12/02 05:11:09;;;;;;;2.42;1.33;;;2.00;99.90;;;;;;5050804;28;20452;-70
2021/12/02 05:13:36;;;;;;;3.78;1.63;;;2.00;99.90;;;;;;5051536;28;20488;-69
2021/12/02 05:16:03;;;;;;;6.65;2.53;;;2.00;99.90;;;;;;5050961;28;20056;-70
2021/12/02 05:18:30;;;;;;;4.82;2.50;;;2.10;99.90;;;;;;5051340;28;20088;-70
2021/12/02 05:20:57;;;;;;;6.63;1.95;;;2.10;99.90;;;;;;5051086;28;20056;-70
2021/12/02 05:23:24;;;;;;;4.90;1.80;;;2.10;99.90;;;;;;5050620;28;20053;-70
2021/12/02 05:25:52;;;;;;;4.00;1.00;;;2.10;99.90;;;;;;5051587;28;20056;-70
2021/12/02 05:28:20;;;;;;;1.55;0.82;;;2.10;99.90;;;;;;5051374;28;20132;-70
2021/12/02 05:30:47;;;;;;;2.40;0.77;;;2.10;99.90;;;;;;5050566;28;20048;-69
2021/12/02 05:33:15;;;;;;;5.07;0.93;;;2.10;99.90;;;;;;5050376;28;20045;-69
2021/12/02 05:35:42;;;;;;;1.42;0.68;;;2.10;99.90;;;;;;5055581;28;20526;-69
2021/12/02 05:38:09;;;;;;;2.95;0.80;;;2.10;99.90;;;;;;5073041;28;20049;-69
2021/12/02 05:40:36;;;;;;;2.60;0.80;;;2.00;99.90;;;;;;5061525;28;20118;-69
2021/12/02 05:43:05;;;;;;;1.88;0.70;;;2.00;99.90;;;;;;5075305;28;20057;-69
2021/12/02 05:45:32;;;;;;;2.88;0.60;;;1.90;99.90;;;;;;5057468;28;20076;-69
2021/12/02 05:47:59;;;;;;;4.32;0.68;;;1.90;99.90;;;;;;5058694;28;20087;-70
2021/12/02 05:50:26;;;;;;;1.60;0.57;;;1.90;99.90;;;;;;5046016;28;20053;-69
2021/12/02 05:52:53;;;;;;;2.40;0.80;;;1.90;99.90;;;;;;5056738;28;20122;-69
2021/12/02 05:55:21;;;;;;;3.03;0.90;;;1.80;99.90;;;;;;5059495;28;20508;-70
2021/12/02 05:57:48;;;;;;;2.33;0.93;;;1.80;99.90;;;;;;5060505;28;20424;-70
2021/12/02 06:00:17;;;;;;;3.13;0.77;;;1.90;99.90;;;;;;5060072;28;20134;-69
2021/12/02 06:02:45;;;;;;;3.92;0.70;;;1.80;99.90;;;;;;5060601;28;20044;-69
2021/12/02 06:05:16;;;;;;;3.55;0.80;;;1.80;99.90;;;;;;5065485;28;20128;-69
2021/12/02 06:07:43;;;;;;;5.90;0.70;;;1.80;99.90;;;;;;5062999;28;20052;-69
2021/12/02 06:10:11;;;;;;;2.53;1.20;;;1.80;99.90;;;;;;5082174;28;20409;-69
2021/12/02 06:12:38;;;;;;;1.58;0.60;;;1.80;99.90;;;;;;5078582;28;20045;-71
2021/12/02 06:15:06;;;;;;;4.00;1.00;;;2.00;99.90;;;;;;5060422;28;20088;-71
2021/12/02 06:17:35;;;;;;;4.25;0.90;;;1.90;99.90;;;;;;5063643;28;20147;-70
2021/12/02 06:20:03;;;;;;;3.95;0.70;;;2.00;99.90;;;;;;5070980;28;20534;-71
2021/12/02 06:22:29;;;;;;;2.50;0.90;;;2.00;99.90;;;;;;5064189;28;20052;-70
2021/12/02 06:25:16;;;;;;;1.52;0.90;;;2.00;99.90;;;;;;5075232;28;20504;-69
2021/12/02 06:27:44;;;;;;;4.32;1.05;;;2.00;99.90;;;;;;5076859;28;20053;-68
2021/12/02 06:30:12;;;;;;;2.15;0.70;;;2.00;99.90;;;;;;5079458;28;20134;-68
2021/12/02 06:32:40;;;;;;;3.97;0.95;;;2.00;99.90;;;;;;5063693;28;20087;-69
2021/12/02 06:35:08;;;;;;;3.85;1.42;;;2.10;99.90;;;;;;5058933;28;20136;-69
2021/12/02 06:37:35;;;;;;;4.25;0.80;;;2.10;99.90;;;;;;5060927;28;20122;-69
2021/12/02 06:40:02;;;;;;;2.45;0.80;;;2.20;99.90;;;;;;5061017;28;20136;-69
2021/12/02 06:42:29;;;;;;;2.22;0.90;;;2.20;99.90;;;;;;5058675;28;20079;-70
2021/12/02 06:44:57;;;;;;;2.08;0.80;;;2.20;99.90;;;;;;5062047;28;20052;-70
2021/12/02 06:47:28;;;;;;;2.58;0.88;;;2.20;99.90;;;;;;5077980;28;20056;-69
2021/12/02 06:50:00;;;;;;;2.60;1.10;;;2.30;99.90;;;;;;5067690;28;20068;-69
2021/12/02 06:52:27;;;;;;;2.22;1.20;;;2.30;99.90;;;;;;5064877;28;20155;-70
2021/12/02 06:54:54;;;;;;;4.47;1.30;;;2.30;99.90;;;;;;5063244;28;20052;-68
2021/12/02 06:57:21;;;;;;;2.88;1.67;;;2.30;99.90;;;;;;5057790;28;20091;-70
2021/12/02 06:59:48;;;;;;;4.10;0.90;;;2.30;99.90;;;;;;5062203;28;20138;-72
2021/12/02 07:02:15;;;;;;;3.55;1.00;;;2.30;99.90;;;;;;5050102;28;20072;-77
2021/12/02 07:04:42;;;;;;;2.53;0.80;;;2.30;99.90;;;;;;5036348;28;20057;-70
2021/12/02 07:07:10;;;;;;;1.85;0.80;;;2.30;99.90;;;;;;5049313;28;20463;-69
2021/12/02 07:09:37;;;;;;;4.13;0.70;;;2.30;99.90;;;;;;5048980;28;20084;-69
2021/12/02 07:12:05;;;;;;;2.05;0.80;;;2.20;99.90;;;;;;5048713;28;20072;-69
2021/12/02 07:14:31;;;;;;;2.63;0.80;;;2.10;99.90;;;;;;5048701;28;20405;-70
2021/12/02 07:16:58;;;;;;;3.67;1.00;;;2.10;99.90;;;;;;5041607;28;20099;-69
2021/12/02 07:19:25;;;;;;;3.92;0.85;;;2.00;99.90;;;;;;5051465;28;20472;-69
2021/12/02 07:21:52;;;;;;;1.63;0.82;;;1.90;99.90;;;;;;5050625;28;20049;-70
2021/12/02 07:24:23;;;;;;;4.82;1.08;;;1.80;99.90;;;;;;5051069;28;20080;-70
2021/12/02 07:26:50;;;;;;;7.05;1.42;;;1.80;99.90;;;;;;5035814;28;20064;-69
2021/12/02 07:29:16;;;;;;;2.35;1.05;;;1.70;99.90;;;;;;5031805;28;20453;-69
2021/12/02 07:31:44;;;;;;;4.63;1.00;;;1.70;99.90;;;;;;5040924;28;20102;-69
2021/12/02 07:34:11;;;;;;;3.45;1.50;;;1.70;99.90;;;;;;5050891;28;20452;-69
2021/12/02 07:36:39;;;;;;;4.82;0.90;;;1.60;99.90;;;;;;5050928;28;20087;-69
2021/12/02 07:39:07;;;;;;;3.80;1.02;;;1.60;99.90;;;;;;5051601;28;20048;-69
2021/12/02 07:41:36;;;;;;;4.75;1.10;;;1.70;99.90;;;;;;5042939;28;20082;-69
2021/12/02 07:44:04;;;;;;;2.10;0.90;;;1.70;99.90;;;;;;5030677;28;20088;-69
2021/12/02 07:46:31;;;;;;;2.95;1.00;;;1.70;99.90;;;;;;5032143;28;20096;-70
2021/12/02 07:48:59;;;;;;;2.78;1.00;;;1.80;99.90;;;;;;5031152;28;20081;-69
2021/12/02 07:51:30;;;;;;;2.00;1.17;;;1.80;99.90;;;;;;5031259;28;20107;-69
2021/12/02 07:53:58;;;;;;;5.00;1.92;;;1.80;99.90;;;;;;5035891;28;20135;-69
2021/12/02 07:56:25;;;;;;;3.78;1.30;;;1.80;99.90;;;;;;5031378;28;20049;-69
2021/12/02 07:58:54;;;;;;;4.53;1.58;;;1.70;99.90;;;;;;5031002;28;20061;-69
2021/12/02 08:01:20;;;;;;;3.35;1.85;;;1.70;99.90;;;;;;5032281;28;20115;-70
2021/12/02 08:03:47;;;;;;;4.55;1.92;;;1.80;99.90;;;;;;5051109;28;20061;-70
2021/12/02 08:06:16;;;;;;;17.33;2.75;;;2.30;99.90;;;;;;5049884;28;20053;-70
2021/12/02 08:08:45;;;;;;;7.88;2.15;;;3.00;99.90;;;;;;5036064;28;20099;-70
2021/12/02 08:11:12;;;;;;;6.75;2.50;;;4.00;99.90;;;;;;5030665;28;20481;-71
2021/12/02 08:13:38;;;;;;;7.47;2.70;;;4.80;99.90;;;;;;5030441;28;20089;-70
2021/12/02 08:16:07;;;;;;;6.72;2.42;;;5.50;99.90;;;;;;5030658;28;20583;-70
2021/12/02 08:18:35;;;;;;;6.50;1.88;;;6.20;99.90;;;;;;5030954;28;20092;-72
2021/12/02 08:21:02;;;;;;;4.13;1.45;;;6.60;99.90;;;;;;5029840;28;20123;-71
2021/12/02 08:23:29;;;;;;;3.50;1.60;;;6.70;99.90;;;;;;5030880;28;20425;-71
2021/12/02 08:25:56;;;;;;;2.97;1.45;;;6.60;99.90;;;;;;5029887;28;20505;-71
2021/12/02 08:28:23;;;;;;;5.22;1.45;;;7.00;99.90;;;;;;5030528;28;20133;-72
2021/12/02 08:30:50;;;;;;;3.63;1.70;;;7.60;99.90;;;;;;5037051;28;20081;-71
2021/12/02 08:33:19;;;;;;;3.15;1.38;;;8.10;99.90;;;;;;5048791;28;20045;-71
2021/12/02 08:35:46;;;;;;;4.30;1.20;;;8.50;99.90;;;;;;5049892;28;20412;-71
2021/12/02 08:38:15;;;;;;;3.03;1.15;;;7.90;99.90;;;;;;5050541;28;20519;-71
2021/12/02 08:40:43;;;;;;;2.22;1.10;;;7.20;99.90;;;;;;5049637;28;20441;-71
2021/12/02 08:43:13;;;;;;;5.60;1.25;;;6.70;99.90;;;;;;5040013;28;20049;-71
2021/12/02 08:45:42;;;;;;;4.15;1.17;;;6.40;99.90;;;;;;5043408;28;20084;-71
2021/12/02 08:48:10;;;;;;;4.25;1.67;;;6.00;99.90;;;;;;5050341;28;20393;-70
2021/12/02 08:50:40;;;;;;;6.00;1.30;;;5.60;99.90;;;;;;5049513;28;20048;-71
2021/12/02 08:53:08;;;;;;;1.90;0.97;;;5.30;99.90;;;;;;5049883;28;20056;-71
2021/12/02 08:55:36;;;;;;;3.35;1.25;;;5.00;99.90;;;;;;5049290;28;20291;-71
2021/12/02 08:58:04;;;;;;;3.22;1.08;;;4.90;99.90;;;;;;5050095;28;20088;-70
2021/12/02 09:00:34;;;;;;;2.95;1.13;;;4.70;99.90;;;;;;5049894;28;20397;-71
2021/12/02 09:03:02;;;;;;;3.42;1.35;;;4.60;99.90;;;;;;5048889;28;20045;-72
2021/12/02 09:05:29;;;;;;;3.33;1.00;;;4.40;99.90;;;;;;5049412;28;20069;-71
2021/12/02 09:07:57;;;;;;;4.28;1.50;;;4.30;99.90;;;;;;5039125;28;20049;-71
2021/12/02 09:10:26;;;;;;;5.55;2.17;;;4.20;99.90;;;;;;5028470;28;20049;-71
2021/12/02 09:12:53;;;;;;;7.18;3.42;;;4.10;99.90;;;;;;5029344;28;20049;-71
2021/12/02 09:15:20;;;;;;;8.43;2.95;;;4.10;99.90;;;;;;5029583;28;20111;-71
2021/12/02 09:17:47;;;;;;;6.05;1.80;;;4.10;99.90;;;;;;5042584;28;20057;-70
2021/12/02 09:20:16;;;;;;;3.75;1.60;;;4.30;99.90;;;;;;5049682;28;20049;-70
2021/12/02 09:22:43;;;;;;;3.28;1.70;;;4.80;99.90;;;;;;5048412;28;20045;-71
2021/12/02 09:25:14;;;;;;;4.32;2.40;;;4.80;99.90;;;;;;5049308;28;20053;-71
2021/12/02 09:27:41;;;;;;;4.05;1.55;;;4.80;99.90;;;;;;5049269;28;20060;-70
2021/12/02 09:30:09;;;;;;;4.55;1.30;;;4.70;99.90;;;;;;5048950;28;20095;-71
2021/12/02 09:32:36;;;;;;;2.78;0.93;;;4.60;99.90;;;;;;5049319;28;20099;-70
2021/12/02 09:35:04;;;;;;;3.80;1.08;;;4.40;99.90;;;;;;5050820;28;20051;-71
2021/12/02 09:37:31;;;;;;;2.83;0.82;;;4.40;99.90;;;;;;5048878;28;20053;-71
2021/12/02 09:39:58;;;;;;;2.08;1.08;;;4.40;99.90;;;;;;5049406;28;20092;-71
2021/12/02 09:42:27;;;;;;;5.57;1.40;;;4.40;99.90;;;;;;5046954;28;20527;-71
2021/12/02 09:44:58;;;;;;;2.83;1.00;;;5.00;99.90;;;;;;5052701;28;20132;-72
2021/12/02 09:47:25;;;;;;;3.33;1.20;;;6.70;99.90;;;;;;5053032;28;20103;-72
2021/12/02 09:49:52;;;;;;;2.58;1.17;;;8.80;99.90;;;;;;5053990;28;20118;-72
2021/12/02 09:52:28;;;;;;;5.63;1.27;;;9.60;99.90;;;;;;5052187;28;20162;-72
2021/12/02 09:54:59;;;;;;;5.18;0.90;;;9.00;99.90;;;;;;5053523;28;20077;-72
2021/12/02 09:57:33;;;;;;;3.40;0.95;;;8.20;99.90;;;;;;5048402;28;20053;-72
2021/12/02 10:00:00;;;;;;;3.95;0.95;;;7.20;99.90;;;;;;5052833;28;20194;-71
2021/12/02 10:02:27;;;;;;;2.45;1.10;;;6.20;99.90;;;;;;5037646;28;20128;-71
2021/12/02 10:04:57;;;;;;;2.53;0.70;;;5.50;99.90;;;;;;5032138;28;20096;-72
2021/12/02 10:07:30;;;;;;;1.80;0.73;;;5.00;99.90;;;;;;5039841;28;20416;-72
2021/12/02 10:10:03;;;;;;;1.95;0.85;;;4.40;99.90;;;;;;5032731;28;20501;-72
2021/12/02 10:12:34;;;;;;;3.45;0.93;;;4.00;99.90;;;;;;5033157;28;20497;-72
2021/12/02 10:15:07;;;;;;;3.63;0.88;;;3.70;99.90;;;;;;5053355;28;20064;-72
2021/12/02 10:17:36;;;;;;;1.55;0.90;;;3.50;99.90;;;;;;5052851;28;20057;-72
2021/12/02 10:20:18;;;;;;;3.13;1.00;;;3.50;99.90;;;;;;5052362;28;20077;-72
2021/12/02 10:23:09;;;;;;;1.45;0.60;;;3.40;99.90;;;;;;5052844;28;20434;-72
2021/12/02 10:25:37;;;;;;;2.13;0.70;;;3.40;99.90;;;;;;5052423;28;20068;-71
2021/12/02 10:28:07;;;;;;;3.28;0.68;;;3.50;99.90;;;;;;5052441;28;20075;-71
2021/12/02 10:30:34;;;;;;;2.03;0.80;;;3.40;99.90;;;;;;5053057;28;20072;-71
2021/12/02 10:33:02;;;;;;;0.95;0.50;;;3.40;99.90;;;;;;5051582;28;20546;-71
2021/12/02 10:35:40;;;;;;;2.63;0.80;;;3.30;99.90;;;;;;5053012;28;20099;-71
2021/12/02 10:38:07;;;;;;;3.53;0.90;;;3.20;99.90;;;;;;5052606;28;20083;-71
2021/12/02 10:40:36;;;;;;;2.60;1.10;;;3.30;99.90;;;;;;5051863;28;20056;-70
2021/12/02 10:43:10;;;;;;;4.72;2.58;;;3.30;99.90;;;;;;5051987;28;20044;-71
2021/12/02 10:45:37;;;;;;;2.95;2.00;;;3.30;99.90;;;;;;5052233;28;20045;-71
2021/12/02 10:48:04;;;;;;;2.30;1.00;;;3.30;99.90;;;;;;5041806;28;20087;-70
2021/12/02 10:50:39;;;;;;;2.88;1.45;;;3.30;99.90;;;;;;5032530;28;20532;-70
2021/12/02 10:53:06;;;;;;;1.83;0.73;;;3.30;99.90;;;;;;5032321;28;20080;-70
2021/12/02 10:55:33;;;;;;;2.83;1.02;;;4.20;99.90;;;;;;5050697;28;20081;-70
2021/12/02 10:58:01;;;;;;;2.30;1.05;;;3.10;99.90;;;;;;5052388;28;20055;-72
2021/12/02 11:00:32;;;;;;;2.15;0.82;;;3.10;99.90;;;;;;5037798;28;20119;-70
2021/12/02 11:03:07;;;;;;;2.03;1.10;;;3.00;99.90;;;;;;5031648;28;20054;-70
2021/12/02 11:05:35;;;;;;;2.20;0.88;;;2.90;99.90;;;;;;5032385;28;20096;-70
2021/12/02 11:08:05;;;;;;;2.90;0.90;;;2.80;99.90;;;;;;5036312;28;20449;-69
2021/12/02 11:10:35;;;;;;;3.10;1.23;;;2.80;99.90;;;;;;5032475;28;20049;-70
2021/12/02 11:13:01;;;;;;;4.85;0.90;;;2.60;99.90;;;;;;5050543;28;20076;-70
2021/12/02 11:15:32;;;;;;;3.63;0.88;;;2.60;99.90;;;;;;5046527;28;20489;-70
2021/12/02 11:18:02;;;;;;;1.13;0.73;;;2.60;99.90;;;;;;5031803;28;20081;-70
2021/12/02 11:20:31;;;;;;;1.73;0.80;;;2.60;99.90;;;;;;5039953;28;20571;-70
2021/12/02 11:23:01;;;;;;;1.65;0.68;;;2.60;99.90;;;;;;5050910;28;20221;-71
2021/12/02 11:25:29;;;;;;;4.57;0.85;;;2.60;99.90;;;;;;5052894;28;20137;-71
2021/12/02 11:27:56;;;;;;;2.13;1.00;;;2.70;99.90;;;;;;5051828;28;20053;-71
2021/12/02 11:30:24;;;;;;;7.97;0.95;;;2.70;99.90;;;;;;5050623;28;20151;-71
2021/12/02 11:32:57;;;;;;;2.40;0.70;;;2.70;99.90;;;;;;5051461;28;20080;-71
2021/12/02 11:35:31;;;;;;;3.38;1.10;;;2.70;99.90;;;;;;5045452;28;20049;-71
2021/12/02 11:38:03;;;;;;;6.70;1.95;;;2.80;99.90;;;;;;5051029;28;20060;-71
2021/12/02 11:40:31;;;;;;;3.25;1.58;;;2.70;99.90;;;;;;5051553;28;20057;-71
2021/12/02 11:42:59;;;;;;;4.20;1.70;;;2.70;99.90;;;;;;5049991;28;20073;-71
2021/12/02 11:45:28;;;;;;;3.88;1.42;;;2.70;99.90;;;;;;5051527;28;20083;-71
2021/12/02 11:47:57;;;;;;;2.00;1.00;;;2.70;99.90;;;;;;5050787;28;20056;-71
2021/12/02 11:50:27;;;;;;;1.48;0.80;;;2.70;99.90;;;;;;5050759;28;20092;-71
2021/12/02 11:52:55;;;;;;;1.23;0.80;;;2.70;99.90;;;;;;5050638;28;20045;-71
2021/12/02 11:55:24;;;;;;;3.70;1.00;;;2.70;99.90;;;;;;5051267;28;20171;-71
2021/12/02 11:57:52;;;;;;;2.47;1.42;;;2.70;99.90;;;;;;5051372;28;20470;-71
2021/12/02 12:00:21;;;;;;;2.58;1.23;;;2.60;99.90;;;;;;5050964;28;20489;-74
2021/12/02 12:02:52;;;;;;;2.05;1.20;;;2.60;99.90;;;;;;5050014;28;20077;-71
2021/12/02 12:05:25;;;;;;;2.63;1.83;;;2.50;99.90;;;;;;5045163;28;20072;-71
2021/12/02 12:07:53;;;;;;;2.47;1.45;;;2.70;99.90;;;;;;5036394;28;20065;-71
2021/12/02 12:10:25;;;;;;;4.60;1.52;;;3.40;99.90;;;;;;5030697;28;20085;-71
2021/12/02 12:12:53;;;;;;;2.72;1.30;;;4.00;99.90;;;;;;5038205;28;20091;-71
2021/12/02 12:15:48;;;;;;;2.92;0.90;;;4.40;99.90;;;;;;5050322;28;20195;-71
2021/12/02 12:18:39;;;;;;;1.80;0.60;;;5.70;99.90;;;;;;5026970;28;20049;-70
2021/12/02 12:21:09;;;;;;;0.88;0.60;;;6.80;99.90;;;;;;5046867;28;20079;-71
2021/12/02 12:23:58;;;;;;;2.30;0.63;;;7.20;99.90;;;;;;5050365;28;20053;-71
2021/12/02 12:26:35;;;;;;;0.82;0.50;;;6.90;99.90;;;;;;5049727;28;20049;-70
2021/12/02 12:29:19;;;;;;;4.03;1.15;;;6.10;99.90;;;;;;5050571;28;20060;-71
2021/12/02 12:32:27;;;;;;;1.90;0.65;;;5.50;99.90;;;;;;5050677;28;20049;-71
2021/12/02 12:35:03;;;;;;;1.92;0.77;;;4.70;99.90;;;;;;5047590;28;20362;-71
2021/12/02 12:37:48;;;;;;;3.53;1.30;;;4.30;99.90;;;;;;5051740;28;20143;-71
2021/12/02 12:40:19;;;;;;;0.70;0.50;;;4.00;99.90;;;;;;5045472;28;20460;-71
2021/12/02 12:42:49;;;;;;;1.90;0.40;;;4.60;99.90;;;;;;5049391;28;20504;-71
2021/12/02 12:45:27;;;;;;;0.93;0.50;;;5.30;99.90;;;;;;5050473;28;20155;-71
2021/12/02 12:47:57;;;;;;;1.38;0.70;;;6.10;99.90;;;;;;5044912;28;20048;-72
2021/12/02 12:50:28;;;;;;;0.80;0.50;;;6.80;99.90;;;;;;5031308;28;20053;-71
2021/12/02 12:53:20;;;;;;;1.58;0.50;;;8.10;99.90;;;;;;5030342;28;20099;-72
2021/12/02 12:56:04;;;;;;;2.45;0.55;;;9.30;99.90;;;;;;5048038;28;20102;-72
2021/12/02 12:58:32;;;;;;;2.15;0.60;;;10.10;99.90;;;;;;5047379;28;20417;-72
2021/12/02 13:01:00;;;;;;;0.82;0.60;;;10.70;99.90;;;;;;5049302;28;20085;-72
2021/12/02 13:03:30;;;;;;;9.30;1.23;;;11.40;99.90;;;;;;5049730;28;20079;-72
2021/12/02 13:06:06;;;;;;;0.70;0.40;;;11.50;99.90;;;;;;5046795;28;20053;-72
2021/12/02 13:08:44;;;;;;;0.70;0.45;;;11.70;99.90;;;;;;5048707;28;20052;-72
2021/12/02 13:11:13;;;;;;;2.95;0.80;;;12.00;99.90;;;;;;5050838;28;20138;-72
2021/12/02 13:13:42;;;;;;;1.38;0.55;;;12.50;99.90;;;;;;5035632;28;20053;-72